Time;durP1;ratioP1;P1;durP2;ratioP2;P2;SDS_P1;SDS_P2;PMS_P1;PMS_P2;Temp;Humidity;BMP_temperature;BMP_pressure;BME280_temperature;BME280_humidity;BME280_pressure;Samples;Min_cycle;Max_cycle;Signal;HPM_P1;HPM_P2
2023/01/20 00:00:48;;;;;;;66.90;44.50;;;;;;;-0.59;100.00;100886.06;5244734;28;20029;-72
2023/01/20 00:03:19;;;;;;;69.53;44.90;;;;;;;-0.59;100.00;100888.63;5244582;28;20106;-72
2023/01/20 00:05:51;;;;;;;51.60;36.70;;;;;;;-0.59;100.00;100890.31;5244280;28;20025;-72
2023/01/20 00:08:22;;;;;;;51.70;36.15;;;;;;;-0.63;100.00;100901.25;5244216;28;20029;-72
2023/01/20 00:10:54;;;;;;;55.43;38.37;;;;;;;-0.58;100.00;100905.75;5243185;28;20456;-72
2023/01/20 00:13:25;;;;;;;53.70;37.50;;;;;;;-0.65;100.00;100903.75;5244513;28;20415;-72
2023/01/20 00:15:57;;;;;;;53.80;37.77;;;;;;;-0.68;100.00;100915.59;5244580;28;20370;-71
2023/01/20 00:18:32;;;;;;;55.20;37.37;;;;;;;-0.66;100.00;100921.63;5244830;28;20065;-72
2023/01/20 00:21:08;;;;;;;52.78;36.10;;;;;;;-0.68;100.00;100913.03;5244299;28;20381;-71
2023/01/20 00:23:39;;;;;;;58.67;38.10;;;;;;;-0.79;100.00;100908.41;5244285;28;20046;-73
2023/01/20 00:26:15;;;;;;;58.47;37.17;;;;;;;-0.81;100.00;100915.16;5243060;28;20496;-72
2023/01/20 00:28:47;;;;;;;54.88;37.17;;;;;;;-0.76;100.00;100923.00;5244163;28;20491;-72
2023/01/20 00:31:23;;;;;;;60.63;36.53;;;;;;;-0.83;100.00;100916.78;5243763;28;20116;-71
2023/01/20 00:33:57;;;;;;;53.35;35.00;;;;;;;-0.86;100.00;100926.06;5244288;28;20026;-72
2023/01/20 00:36:31;;;;;;;54.90;33.88;;;;;;;-0.84;100.00;100925.28;5243954;28;20033;-73
2023/01/20 00:39:03;;;;;;;58.70;35.15;;;;;;;-0.88;100.00;100920.88;5244227;28;20159;-73
2023/01/20 00:41:34;;;;;;;61.28;35.78;;;;;;;-0.83;100.00;100927.03;5243945;28;20037;-73
2023/01/20 00:44:06;;;;;;;54.97;34.10;;;;;;;-0.81;100.00;100927.94;5244127;28;20033;-72
2023/01/20 00:46:37;;;;;;;55.93;35.20;;;;;;;-0.79;100.00;100930.56;5243721;28;20033;-72
2023/01/20 00:49:09;;;;;;;57.77;36.47;;;;;;;-0.73;100.00;100938.47;5244063;28;20073;-73
2023/01/20 00:51:40;;;;;;;61.15;36.35;;;;;;;-0.71;100.00;100934.25;5243672;28;20431;-73
2023/01/20 00:54:12;;;;;;;59.57;37.73;;;;;;;-0.73;100.00;100933.34;5243745;28;20034;-73
2023/01/20 00:56:43;;;;;;;57.13;36.17;;;;;;;-0.66;100.00;100934.44;5242607;28;20068;-74
2023/01/20 00:59:14;;;;;;;61.13;36.37;;;;;;;-0.67;100.00;100935.28;5244107;28;20061;-73
2023/01/20 01:01:46;;;;;;;62.37;36.67;;;;;;;-0.71;100.00;100934.25;5243734;28;20033;-73
2023/01/20 01:04:17;;;;;;;63.27;37.73;;;;;;;-0.71;100.00;100943.66;5243489;28;20449;-72
2023/01/20 01:06:49;;;;;;;59.27;36.23;;;;;;;-0.73;100.00;100938.47;5243663;28;20029;-70
2023/01/20 01:09:20;;;;;;;67.60;38.83;;;;;;;-0.70;100.00;100938.59;5243051;28;20061;-72
2023/01/20 01:11:52;;;;;;;64.57;40.33;;;;;;;-0.75;100.00;100940.13;5243021;28;20087;-72
2023/01/20 01:14:23;;;;;;;63.87;37.07;;;;;;;-0.73;100.00;100953.81;5243556;28;20116;-72
2023/01/20 01:16:55;;;;;;;55.77;36.83;;;;;;;-0.72;100.00;100955.59;5243057;28;20061;-72
2023/01/20 01:19:26;;;;;;;58.87;34.47;;;;;;;-0.72;100.00;100955.59;5243091;28;20079;-71
2023/01/20 01:21:57;;;;;;;58.67;34.40;;;;;;;-0.75;100.00;100969.13;5243318;28;20037;-73
2023/01/20 01:24:29;;;;;;;58.40;35.73;;;;;;;-0.77;100.00;100962.22;5242034;28;20447;-72
2023/01/20 01:27:00;;;;;;;59.43;34.60;;;;;;;-0.79;100.00;100967.28;5243231;28;20139;-73
2023/01/20 01:29:31;;;;;;;55.17;32.33;;;;;;;-0.75;100.00;100969.13;5243144;28;20037;-73
2023/01/20 01:32:03;;;;;;;57.77;33.27;;;;;;;-0.76;100.00;100971.63;5242853;28;20116;-72
2023/01/20 01:34:35;;;;;;;58.83;34.80;;;;;;;-0.80;100.00;100974.91;5243101;28;20038;-73
2023/01/20 01:37:06;;;;;;;60.73;34.23;;;;;;;-0.81;100.00;100970.59;5242475;28;20022;-72
2023/01/20 01:39:37;;;;;;;60.40;32.87;;;;;;;-0.79;100.00;100959.63;5243322;28;20032;-72
2023/01/20 01:42:13;;;;;;;59.57;32.97;;;;;;;-0.78;100.00;100965.59;5242632;28;20025;-74
2023/01/20 01:45:09;;;;;;;53.50;29.48;;;;;;;-0.79;100.00;100971.53;5242412;28;20144;-73
2023/01/20 01:47:48;;;;;;;59.00;32.50;;;;;;;-0.78;100.00;100973.28;5242496;28;20029;-72
2023/01/20 01:50:24;;;;;;;58.83;32.10;;;;;;;-0.75;100.00;100970.81;5241798;28;20041;-72
2023/01/20 01:52:56;;;;;;;59.70;33.38;;;;;;;-0.75;100.00;100976.81;5241115;28;20040;-73
2023/01/20 01:55:31;;;;;;;66.03;36.13;;;;;;;-0.79;100.00;100986.88;5242301;28;20104;-73
2023/01/20 01:58:05;;;;;;;64.38;32.92;;;;;;;-0.71;100.00;100976.94;5242456;28;20080;-73
2023/01/20 02:00:37;;;;;;;60.00;32.92;;;;;;;-0.73;100.00;100980.28;5242344;28;20116;-72
2023/01/20 02:03:10;;;;;;;60.78;33.20;;;;;;;-0.68;100.00;100969.34;5242205;28;20453;-72
2023/01/20 02:05:42;;;;;;;;;;;;;;;-0.67;100.00;100968.56;5243283;28;20441;-72
2023/01/20 02:08:14;;;;;;;59.33;32.90;;;;;;;-0.76;100.00;100975.09;5242251;28;20338;-72
2023/01/20 02:10:45;;;;;;;66.88;32.75;;;;;;;-0.71;100.00;100971.81;5240955;28;20137;-73
2023/01/20 02:13:17;;;;;;;58.17;31.37;;;;;;;-0.67;100.00;100977.09;5242529;28;20550;-73
2023/01/20 02:16:08;;;;;;;61.93;32.70;;;;;;;-0.71;100.00;100976.94;5240685;28;20120;-73
2023/01/20 02:18:45;;;;;;;61.08;32.80;;;;;;;-0.66;100.00;100983.06;5242895;28;20021;-73
2023/01/20 02:21:55;;;;;;;59.80;32.78;;;;;;;-0.64;100.00;100978.91;5242002;28;20033;-73
2023/01/20 02:24:48;;;;;;;62.90;32.03;;;;;;;-0.73;100.00;100984.53;5241623;28;20058;-73
2023/01/20 02:27:45;;;;;;;61.63;32.80;;;;;;;-0.70;100.00;100987.22;5241806;28;20033;-73
2023/01/20 02:30:47;;;;;;;57.72;31.50;;;;;;;-0.70;100.00;100984.66;5242350;28;20037;-73
2023/01/20 02:33:30;;;;;;;58.17;31.73;;;;;;;-0.69;100.00;100986.41;5241059;28;20041;-73
2023/01/20 02:36:08;;;;;;;61.42;31.23;;;;;;;-0.75;100.00;100997.28;5241942;28;20076;-73
2023/01/20 02:38:59;;;;;;;65.40;33.80;;;;;;;-0.79;100.00;100998.00;5241985;28;20032;-73
2023/01/20 02:41:43;;;;;;;52.08;29.90;;;;;;;-0.78;100.00;101004.84;5242255;28;20033;-73
2023/01/20 02:44:36;;;;;;;60.60;32.20;;;;;;;-0.79;100.00;101003.13;5241816;28;20044;-73
2023/01/20 02:47:18;;;;;;;59.30;30.27;;;;;;;-0.81;100.00;100999.63;5241153;28;20040;-73
2023/01/20 02:50:10;;;;;;;67.00;33.27;;;;;;;-0.89;100.00;100992.50;5244091;28;20029;-73
2023/01/20 02:52:47;;;;;;;59.40;30.17;;;;;;;-0.82;100.00;101002.13;5246146;28;20465;-73
2023/01/20 02:55:48;;;;;;;60.13;31.70;;;;;;;-0.85;100.00;100994.31;5245975;28;20353;-73
2023/01/20 02:58:55;;;;;;;61.20;31.17;;;;;;;-0.81;100.00;101002.19;5246071;28;20064;-73
2023/01/20 03:01:36;;;;;;;60.63;31.05;;;;;;;-0.86;100.00;100995.16;5245621;28;20041;-72
2023/01/20 03:04:12;;;;;;;55.80;30.83;;;;;;;-0.83;100.00;100993.56;5245734;28;20068;-73
2023/01/20 03:06:49;;;;;;;61.13;32.15;;;;;;;-0.87;100.00;100994.31;5245671;28;20038;-73
2023/01/20 03:09:27;;;;;;;61.53;31.80;;;;;;;-0.78;100.00;101002.28;5245683;28;20033;-73
2023/01/20 03:12:29;;;;;;;63.67;31.33;;;;;;;-0.78;100.00;100994.63;5245686;28;20043;-73
2023/01/20 03:15:01;;;;;;;54.38;30.85;;;;;;;-0.85;100.00;101005.47;5244824;28;20461;-72
2023/01/20 03:17:33;;;;;;;60.45;31.42;;;;;;;-0.80;100.00;101005.63;5245682;28;20087;-72
2023/01/20 03:20:05;;;;;;;63.97;32.72;;;;;;;-0.82;100.00;101003.00;5245714;28;20368;-73
2023/01/20 03:22:37;;;;;;;57.58;30.42;;;;;;;-0.83;100.00;101008.06;5245577;28;20427;-72
2023/01/20 03:25:10;;;;;;;68.30;33.03;;;;;;;-0.86;100.00;101007.97;5245713;28;20050;-72
2023/01/20 03:27:41;;;;;;;;;;;;;;;-0.84;100.00;101011.44;5245445;28;20034;-73
2023/01/20 03:30:14;;;;;;;58.88;30.88;;;;;;;-0.88;100.00;101010.47;5245500;28;20348;-73
2023/01/20 03:32:48;;;;;;;59.47;29.50;;;;;;;-0.81;100.00;101021.78;5244929;28;20120;-73
2023/01/20 03:35:20;;;;;;;61.83;30.80;;;;;;;-0.79;100.00;101021.03;5245130;28;20091;-73
2023/01/20 03:37:52;;;;;;;56.97;32.05;;;;;;;-0.86;100.00;101021.63;5245042;28;20037;-72
2023/01/20 03:40:26;;;;;;;62.17;30.73;;;;;;;-0.84;100.00;101027.66;5245097;28;20040;-73
2023/01/20 03:43:18;;;;;;;54.55;29.60;;;;;;;-0.87;100.00;101017.34;5245014;28;20030;-72
2023/01/20 03:46:23;;;;;;;58.47;29.33;;;;;;;-0.83;100.00;101020.88;5245267;28;20516;-73
2023/01/20 03:49:18;;;;;;;63.65;32.15;;;;;;;-0.82;100.00;101018.38;5245539;28;20029;-73
2023/01/20 03:51:56;;;;;;;69.95;35.28;;;;;;;-0.79;100.00;101025.28;5245507;28;20045;-73
2023/01/20 03:54:35;;;;;;;62.15;32.83;;;;;;;-0.80;100.00;101026.09;5244510;28;20041;-73
2023/01/20 03:57:20;;;;;;;64.05;34.90;;;;;;;-0.82;100.00;101030.28;5244872;28;20037;-72
2023/01/20 03:59:52;;;;;;;68.93;37.60;;;;;;;-0.87;100.00;101019.91;5244481;28;20029;-73
2023/01/20 04:02:26;;;;;;;72.53;35.78;;;;;;;-0.85;100.00;101015.69;5244526;28;20040;-73
2023/01/20 04:05:00;;;;;;;67.88;34.03;;;;;;;-0.82;100.00;101020.94;5244039;28;20388;-72
2023/01/20 04:07:32;;;;;;;73.18;36.70;;;;;;;-0.79;100.00;101031.28;5244088;28;20030;-72
2023/01/20 04:10:10;;;;;;;71.40;37.13;;;;;;;-0.80;100.00;101029.53;5244320;28;20037;-73
2023/01/20 04:12:41;;;;;;;64.78;35.42;;;;;;;-0.82;100.00;101033.72;5244286;28;20025;-73
2023/01/20 04:15:13;;;;;;;62.27;34.47;;;;;;;-0.86;100.00;101029.28;5244403;28;20030;-73
2023/01/20 04:17:44;;;;;;;67.35;36.22;;;;;;;-0.88;100.00;101032.63;5244250;28;20354;-73
2023/01/20 04:20:16;;;;;;;67.10;34.93;;;;;;;-0.88;100.00;101030.06;5244818;28;20040;-73
2023/01/20 04:22:57;;;;;;;67.73;35.23;;;;;;;-0.86;100.00;101029.28;5244079;28;20124;-73
2023/01/20 04:25:30;;;;;;;65.20;35.67;;;;;;;-0.84;100.00;101031.91;5244275;28;20033;-73
2023/01/20 04:28:02;;;;;;;66.63;36.25;;;;;;;-0.84;100.00;101035.34;5244151;28;20030;-73
2023/01/20 04:30:49;;;;;;;64.55;35.88;;;;;;;-0.86;100.00;101029.28;5222062;28;20056;-73
2023/01/20 04:33:20;;;;;;;61.75;34.13;;;;;;;-0.88;100.00;101032.63;5244837;28;20155;-72
2023/01/20 04:35:52;;;;;;;62.90;33.93;;;;;;;-0.90;100.00;101032.56;5244104;28;20044;-72
2023/01/20 04:38:23;;;;;;;61.63;33.90;;;;;;;-0.89;100.00;101038.56;5243938;28;20029;-72
2023/01/20 04:40:55;;;;;;;61.20;34.83;;;;;;;-0.88;100.00;101045.44;5243656;28;20037;-72
2023/01/20 04:43:26;;;;;;;63.90;32.50;;;;;;;-0.91;100.00;101041.06;5243809;28;20441;-73
2023/01/20 04:45:57;;;;;;;60.30;33.13;;;;;;;-0.91;100.00;101041.06;5243755;28;20076;-73
2023/01/20 04:48:29;;;;;;;63.60;35.03;;;;;;;-0.97;100.00;101044.22;5243738;28;20034;-72
2023/01/20 04:51:03;;;;;;;56.77;30.33;;;;;;;-0.94;100.00;101049.47;5243432;28;20042;-72
2023/01/20 04:53:35;;;;;;;63.67;33.75;;;;;;;-0.91;100.00;101048.72;5243686;28;20049;-72
2023/01/20 04:56:13;;;;;;;60.97;33.93;;;;;;;-0.87;100.00;101054.84;5242390;28;20528;-73
2023/01/20 04:58:46;;;;;;;65.47;34.00;;;;;;;-0.85;100.00;101048.97;5243990;28;20407;-72
2023/01/20 05:01:18;;;;;;;58.63;33.40;;;;;;;-0.83;100.00;101054.16;5243499;28;20034;-72
2023/01/20 05:03:49;;;;;;;64.80;33.87;;;;;;;-0.81;100.00;101055.94;5243423;28;20084;-71
2023/01/20 05:06:21;;;;;;;60.73;34.90;;;;;;;-0.80;100.00;101047.44;5243447;28;20025;-71
2023/01/20 05:08:52;;;;;;;60.50;32.87;;;;;;;-0.79;100.00;101056.00;5243931;28;20037;-72
2023/01/20 05:11:23;;;;;;;62.43;34.53;;;;;;;-0.81;100.00;101061.03;5242960;28;20029;-72
2023/01/20 05:13:55;;;;;;;66.10;34.60;;;;;;;-0.83;100.00;101055.00;5243334;28;20571;-71
2023/01/20 05:16:30;;;;;;;66.47;35.47;;;;;;;-0.86;100.00;101056.59;5243134;28;20037;-71
2023/01/20 05:19:02;;;;;;;70.35;34.95;;;;;;;-0.82;100.00;101059.31;5243528;28;20057;-71
2023/01/20 05:21:33;;;;;;;64.73;34.40;;;;;;;-0.88;100.00;101059.09;5242916;28;20029;-71
2023/01/20 05:24:05;;;;;;;68.50;32.57;;;;;;;-0.87;100.00;101059.94;5242715;28;20108;-72
2023/01/20 05:26:36;;;;;;;62.47;34.00;;;;;;;-0.89;100.00;101066.69;5242798;28;20041;-72
2023/01/20 05:29:08;;;;;;;58.57;32.77;;;;;;;-0.89;100.00;101074.38;5243469;28;20091;-72
2023/01/20 05:31:42;;;;;;;63.73;33.03;;;;;;;-0.90;100.00;101075.19;5243522;28;20021;-72
2023/01/20 05:34:14;;;;;;;61.50;32.17;;;;;;;-0.86;100.00;101064.25;5241703;28;20116;-72
2023/01/20 05:36:51;;;;;;;63.28;32.88;;;;;;;-0.88;100.00;101076.13;5242766;28;20048;-72
2023/01/20 05:39:22;;;;;;;59.95;30.45;;;;;;;-0.86;100.00;101064.25;5243047;28;20418;-71
2023/01/20 05:41:54;;;;;;;55.67;30.07;;;;;;;-0.84;100.00;101066.03;5242832;28;20025;-72
2023/01/20 05:44:25;;;;;;;60.17;30.30;;;;;;;-0.84;100.00;101076.28;5242283;28;20033;-72
2023/01/20 05:46:57;;;;;;;63.20;32.10;;;;;;;-0.83;100.00;101072.94;5242643;28;20034;-72
2023/01/20 05:49:28;;;;;;;55.30;33.37;;;;;;;-0.83;100.00;101067.81;5242549;28;20083;-72
2023/01/20 05:51:59;;;;;;;55.40;31.03;;;;;;;-0.80;100.00;101059.38;5242615;28;20536;-72
2023/01/20 05:54:31;;;;;;;54.47;30.70;;;;;;;-0.81;100.00;101078.97;5242569;28;20030;-72
2023/01/20 05:57:04;;;;;;;57.17;29.97;;;;;;;-0.80;100.00;101077.31;5241959;28;20404;-72
2023/01/20 05:59:35;;;;;;;59.13;30.70;;;;;;;-0.79;100.00;101074.81;5242463;28;20037;-72
2023/01/20 06:02:06;;;;;;;57.20;30.30;;;;;;;-0.81;100.00;101078.97;5241049;28;20044;-72
2023/01/20 06:04:38;;;;;;;54.97;30.30;;;;;;;-0.80;100.00;101073.03;5242698;28;20087;-72
2023/01/20 06:07:09;;;;;;;56.83;30.57;;;;;;;-0.79;100.00;101074.81;5242274;28;20037;-72
2023/01/20 06:09:41;;;;;;;59.20;30.57;;;;;;;-0.75;100.00;101084.31;5242250;28;20419;-71
2023/01/20 06:12:12;;;;;;;50.57;29.27;;;;;;;-0.71;100.00;101085.31;5242738;28;20033;-72
2023/01/20 06:14:43;;;;;;;61.20;30.17;;;;;;;-0.74;100.00;101088.66;5242460;28;20037;-72
2023/01/20 06:17:15;;;;;;;49.10;28.37;;;;;;;-0.71;100.00;101087.00;5242561;28;20033;-73
2023/01/20 06:19:46;;;;;;;57.97;29.63;;;;;;;-0.74;100.00;101096.31;5242085;28;20041;-72
2023/01/20 06:22:19;;;;;;;49.20;28.63;;;;;;;-0.69;100.00;101099.06;5242092;28;20481;-72
2023/01/20 06:24:51;;;;;;;61.50;31.17;;;;;;;-0.72;100.00;101101.50;5241136;28;20064;-72
2023/01/20 06:27:22;;;;;;;55.63;29.00;;;;;;;-0.72;100.00;101093.81;5241883;28;20049;-72
2023/01/20 06:29:54;;;;;;;56.20;28.20;;;;;;;-0.71;100.00;101102.38;5241624;28;20487;-72
2023/01/20 06:32:25;;;;;;;55.73;31.07;;;;;;;-0.71;100.00;101104.91;5241859;28;20454;-72
2023/01/20 06:34:56;;;;;;;59.57;33.10;;;;;;;-0.72;100.00;101106.63;5242170;28;20038;-72
2023/01/20 06:37:28;;;;;;;61.73;29.70;;;;;;;-0.73;100.00;101092.94;5241838;28;20036;-73
2023/01/20 06:39:59;;;;;;;54.90;30.37;;;;;;;-0.70;100.00;101104.13;5242620;28;20084;-73
2023/01/20 06:42:31;;;;;;;53.60;27.90;;;;;;;-0.73;100.00;101097.19;5241693;28;20033;-73
2023/01/20 06:45:02;;;;;;;57.10;29.57;;;;;;;-0.74;100.00;101091.19;5241819;28;20064;-73
2023/01/20 06:47:33;;;;;;;45.93;28.33;;;;;;;-0.72;100.00;101078.47;5241687;28;20044;-73
2023/01/20 06:50:05;;;;;;;55.43;29.37;;;;;;;-0.72;100.00;101081.03;5242268;28;20052;-73
2023/01/20 06:52:37;;;;;;;56.40;30.37;;;;;;;-0.69;100.00;101082.81;5240472;28;20548;-73
2023/01/20 06:55:08;;;;;;;53.20;28.63;;;;;;;-0.72;100.00;101081.03;5241711;28;20477;-73
2023/01/20 06:57:39;;;;;;;54.53;28.60;;;;;;;-0.71;100.00;101087.88;5241613;28;20033;-73
2023/01/20 07:00:11;;;;;;;58.10;31.80;;;;;;;-0.72;100.00;101088.69;5240908;28;20144;-72
2023/01/20 07:02:43;;;;;;;47.47;26.90;;;;;;;-0.70;100.00;101094.75;5241241;28;20168;-70
2023/01/20 07:05:14;;;;;;;49.73;27.23;;;;;;;-0.72;100.00;101093.81;5241668;28;20099;-71
2023/01/20 07:07:45;;;;;;;49.80;30.30;;;;;;;-0.69;100.00;101100.72;5241638;28;20037;-71
2023/01/20 07:10:17;;;;;;;56.93;29.30;;;;;;;-0.74;100.00;101088.66;5241580;28;20061;-72
2023/01/20 07:12:48;;;;;;;58.27;30.73;;;;;;;-0.74;100.00;101090.34;5241811;28;20041;-71
2023/01/20 07:15:19;;;;;;;56.17;28.90;;;;;;;-0.75;100.00;101083.47;5241541;28;20079;-71
2023/01/20 07:17:51;;;;;;;51.70;30.17;;;;;;;-0.74;100.00;101101.44;5241509;28;20092;-71
2023/01/20 07:20:22;;;;;;;55.47;30.37;;;;;;;-0.80;100.00;101096.09;5241289;28;20112;-70
2023/01/20 07:22:53;;;;;;;61.53;30.90;;;;;;;-0.80;100.00;101101.19;5241312;28;20089;-70
2023/01/20 07:25:25;;;;;;;55.80;29.93;;;;;;;-0.79;100.00;101091.81;5241036;28;20064;-71
2023/01/20 07:27:56;;;;;;;53.67;29.53;;;;;;;-0.80;100.00;101103.75;5241443;28;20037;-70
2023/01/20 07:30:28;;;;;;;55.33;31.37;;;;;;;-0.83;100.00;101108.75;5241786;28;20075;-70
2023/01/20 07:32:59;;;;;;;56.97;30.33;;;;;;;-0.81;100.00;101106.25;5239982;28;20041;-70
2023/01/20 07:35:31;;;;;;;53.87;30.53;;;;;;;-0.84;100.00;101107.00;5242974;28;20119;-71
2023/01/20 07:38:03;;;;;;;50.20;30.13;;;;;;;-0.81;100.00;101109.69;5245121;28;20034;-70
2023/01/20 07:40:34;;;;;;;52.33;30.17;;;;;;;-0.80;100.00;101114.00;5245185;28;20120;-70
2023/01/20 07:43:06;;;;;;;53.83;30.67;;;;;;;-0.77;100.00;101131.19;5243899;28;20112;-70
2023/01/20 07:45:37;;;;;;;55.20;30.80;;;;;;;-0.74;100.00;101129.59;5245042;28;20076;-70
2023/01/20 07:48:09;;;;;;;51.70;28.07;;;;;;;-0.70;100.00;101129.72;5244676;28;20045;-71
2023/01/20 07:50:40;;;;;;;56.03;32.83;;;;;;;-0.75;100.00;101137.22;5244814;28;20025;-71
2023/01/20 07:53:11;;;;;;;49.77;29.40;;;;;;;-0.70;100.00;101137.41;5244846;28;20034;-70
2023/01/20 07:55:43;;;;;;;48.97;29.17;;;;;;;-0.70;100.00;101143.38;5244568;28;20065;-70
2023/01/20 07:58:14;;;;;;;52.67;29.00;;;;;;;-0.71;100.00;101140.75;5244375;28;20029;-70
2023/01/20 08:00:48;;;;;;;53.83;30.17;;;;;;;-0.71;100.00;101139.06;5244651;28;20032;-70
2023/01/20 08:03:19;;;;;;;59.38;31.27;;;;;;;-0.70;100.00;101133.16;5243113;28;20038;-70
2023/01/20 08:05:51;;;;;;;60.30;31.00;;;;;;;-0.69;100.00;101141.69;5244384;28;20033;-71
2023/01/20 08:08:22;;;;;;;56.23;30.17;;;;;;;-0.71;100.00;101138.19;5244415;28;20175;-70
2023/01/20 08:10:54;;;;;;;57.27;29.13;;;;;;;-0.70;100.00;101140.81;5244519;28;20034;-70
2023/01/20 08:13:25;;;;;;;52.83;30.80;;;;;;;-0.71;100.00;101145.88;5244041;28;20107;-70
2023/01/20 08:16:02;;;;;;;54.07;30.97;;;;;;;-0.76;100.00;101146.59;5244196;28;20041;-70
2023/01/20 08:18:35;;;;;;;57.67;31.05;;;;;;;-0.79;100.00;101149.03;5243701;28;20036;-70
2023/01/20 08:21:14;;;;;;;62.17;32.25;;;;;;;-0.78;100.00;101142.22;5244892;28;20118;-70
2023/01/20 08:23:46;;;;;;;60.10;33.42;;;;;;;-0.77;100.00;101141.41;5243941;28;20049;-71
2023/01/20 08:26:18;;;;;;;51.67;29.77;;;;;;;-0.74;100.00;101152.63;5244115;28;20465;-70
2023/01/20 08:28:50;;;;;;;63.23;31.97;;;;;;;-0.77;100.00;101151.66;5243902;28;20112;-70
2023/01/20 08:31:23;;;;;;;59.95;31.60;;;;;;;-0.76;100.00;101149.16;5244333;28;20063;-70
2023/01/20 08:33:55;;;;;;;58.45;31.48;;;;;;;-0.72;100.00;101152.69;5243536;28;20123;-70
2023/01/20 08:36:30;;;;;;;55.78;29.75;;;;;;;-0.70;100.00;101150.19;5243669;28;20120;-70
2023/01/20 08:39:04;;;;;;;51.58;30.63;;;;;;;-0.73;100.00;101156.94;5243428;28;20037;-70
2023/01/20 08:41:38;;;;;;;47.67;27.95;;;;;;;-0.70;100.00;101152.75;5243879;28;20037;-71
2023/01/20 08:44:10;;;;;;;49.65;28.08;;;;;;;-0.69;100.00;101154.50;5242676;28;20040;-70
2023/01/20 08:46:43;;;;;;;47.50;26.90;;;;;;;-0.72;100.00;101150.13;5242832;28;20057;-70
2023/01/20 08:49:16;;;;;;;42.45;26.33;;;;;;;-0.69;100.00;101147.69;5243495;28;20493;-70
2023/01/20 08:51:47;;;;;;;44.10;23.70;;;;;;;-0.68;100.00;101153.69;5244052;28;20036;-70
2023/01/20 08:54:19;;;;;;;45.13;26.80;;;;;;;-0.70;100.00;101151.06;5243183;28;20029;-70
2023/01/20 08:56:51;;;;;;;41.13;25.73;;;;;;;-0.67;100.00;101164.00;5243314;28;20481;-70
2023/01/20 08:59:23;;;;;;;;;;;;;;;-0.63;100.00;101170.09;5243809;28;20387;-71
2023/01/20 09:01:54;;;;;;;45.42;26.13;;;;;;;-0.68;100.00;101154.56;5243698;28;19913;-71
2023/01/20 09:04:26;;;;;;;48.27;25.70;;;;;;;-0.67;100.00;101166.53;5243298;28;20123;-71
2023/01/20 09:06:57;;;;;;;41.43;26.37;;;;;;;-0.69;100.00;101167.28;5243328;28;20052;-71
2023/01/20 09:09:28;;;;;;;39.83;24.77;;;;;;;-0.69;100.00;101173.31;5243188;28;20040;-71
2023/01/20 09:12:00;;;;;;;43.47;26.03;;;;;;;-0.68;100.00;101169.03;5243014;28;20112;-72
2023/01/20 09:14:31;;;;;;;45.20;26.97;;;;;;;-0.64;100.00;101165.81;5243083;28;20048;-71
2023/01/20 09:17:02;;;;;;;42.77;26.50;;;;;;;-0.62;100.00;101176.97;5242774;28;20032;-71
2023/01/20 09:19:34;;;;;;;43.73;27.83;;;;;;;-0.64;100.00;101181.16;5243028;28;20108;-71
2023/01/20 09:22:05;;;;;;;45.33;27.20;;;;;;;-0.64;100.00;101169.22;5243024;28;20037;-71
2023/01/20 09:24:37;;;;;;;46.07;28.73;;;;;;;-0.64;100.00;101166.66;5242531;28;20053;-71
2023/01/20 09:27:08;;;;;;;45.13;26.83;;;;;;;-0.63;100.00;101165.88;5243447;28;20030;-71
2023/01/20 09:29:39;;;;;;;40.07;26.87;;;;;;;-0.57;100.00;101167.78;5243295;28;20091;-71
2023/01/20 09:32:12;;;;;;;43.00;26.67;;;;;;;-0.54;100.00;101170.47;5242600;28;20116;-71
2023/01/20 09:34:43;;;;;;;44.25;27.23;;;;;;;-0.54;100.00;101170.47;5242715;28;20044;-71
2023/01/20 09:43:55;;;;;;;41.13;25.10;;;;;;;-0.46;100.00;101181.88;5242910;28;20034;-71
2023/01/20 09:46:42;;;;;;;39.72;25.23;;;;;;;-0.49;100.00;101181.75;5242440;28;20026;-72
2023/01/20 09:55:37;;;;;;;41.08;27.27;;;;;;;-0.57;100.00;101199.38;5242952;28;20073;-72
2023/01/20 09:58:27;;;;;;;37.72;24.08;;;;;;;-0.61;100.00;101194.06;5242867;28;20022;-71
2023/01/20 10:01:10;;;;;;;37.35;23.73;;;;;;;-0.63;100.00;101191.47;5242982;28;20022;-71
2023/01/20 10:03:52;;;;;;;34.53;23.23;;;;;;;-0.72;100.00;101185.97;5242921;28;20021;-72
2023/01/20 10:07:07;;;;;;;33.13;22.27;;;;;;;-0.74;100.00;101185.06;5242902;28;20260;-72
2023/01/20 10:09:48;;;;;;;32.47;21.67;;;;;;;-0.72;100.00;101180.88;5241076;28;20432;-71
2023/01/20 10:12:44;;;;;;;31.75;21.08;;;;;;;-0.71;100.00;101179.16;5242301;28;20033;-71
2023/01/20 10:15:33;;;;;;;34.33;21.88;;;;;;;-0.72;100.00;101170.63;5242505;28;20041;-72
2023/01/20 10:18:28;;;;;;;33.67;20.45;;;;;;;-0.69;100.00;101173.31;5242438;28;20541;-72
2023/01/20 10:21:01;;;;;;;31.23;20.77;;;;;;;-0.70;100.00;101174.09;5242033;28;20026;-72
2023/01/20 10:23:42;;;;;;;31.67;20.35;;;;;;;-0.69;100.00;101180.97;5241728;28;20107;-72
2023/01/20 10:26:32;;;;;;;29.75;19.95;;;;;;;-0.70;100.00;101181.78;5241934;28;20030;-74
2023/01/20 10:29:10;;;;;;;29.90;20.10;;;;;;;-0.69;100.00;101178.44;5241945;28;20440;-72
2023/01/20 10:31:48;;;;;;;32.20;19.02;;;;;;;-0.63;100.00;101172.66;5241937;28;20471;-72
2023/01/20 10:34:21;;;;;;;25.40;17.27;;;;;;;-0.63;100.00;101170.09;5241811;28;20030;-73
2023/01/20 10:37:03;;;;;;;25.98;17.42;;;;;;;-0.54;100.00;101175.56;5242010;28;20041;-73
2023/01/20 10:39:47;;;;;;;27.17;16.75;;;;;;;-0.49;100.00;101174.06;5242259;28;20026;-72
2023/01/20 10:42:19;;;;;;;24.65;16.58;;;;;;;-0.38;100.00;101177.03;5241936;28;20376;-72
2023/01/20 10:44:51;;;;;;;25.10;17.23;;;;;;;-0.35;100.00;101173.72;5241835;28;20029;-71
2023/01/20 10:47:28;;;;;;;22.95;16.30;;;;;;;-0.33;100.00;101180.66;5241369;28;20064;-71
2023/01/20 10:50:32;;;;;;;23.08;15.95;;;;;;;-0.29;100.00;101173.94;5240940;28;20492;-70
2023/01/20 10:53:22;;;;;;;22.70;15.75;;;;;;;-0.27;100.00;101172.34;5242232;28;20369;-71
2023/01/20 10:56:28;;;;;;;20.98;14.48;;;;;;;-0.26;100.00;101172.41;5241278;28;20033;-71
2023/01/20 10:59:16;;;;;;;20.98;15.43;;;;;;;-0.28;100.00;101173.13;5241712;28;20099;-71
2023/01/20 11:01:51;;;;;;;20.73;15.07;;;;;;;-0.31;100.00;101173.03;5241523;28;20037;-71
2023/01/20 11:04:22;;;;;;;21.55;15.48;;;;;;;-0.22;100.00;101176.81;5241932;28;20358;-70
2023/01/20 11:06:58;;;;;;;21.33;15.37;;;;;;;-0.08;100.00;101172.19;5241386;28;20037;-71
2023/01/20 11:09:36;;;;;;;21.80;15.07;;;;;;;-0.07;100.00;101170.50;5241388;28;20026;-71
2023/01/20 11:12:17;;;;;;;19.73;14.52;;;;;;;0.02;100.00;101175.06;5245110;28;20087;-70
2023/01/20 11:14:48;;;;;;;22.10;15.52;;;;;;;0.08;100.00;101171.06;5245564;28;20037;-70
2023/01/20 11:17:20;;;;;;;19.23;14.50;;;;;;;0.12;100.00;101172.91;5245481;28;20068;-70
2023/01/20 11:19:56;;;;;;;22.45;15.27;;;;;;;0.09;100.00;101174.50;5244875;28;20133;-70
2023/01/20 11:22:34;;;;;;;22.55;15.32;;;;;;;0.11;100.00;101177.97;5245323;28;20115;-70
2023/01/20 11:25:21;;;;;;;18.05;13.95;;;;;;;0.09;100.00;101184.75;5245248;28;20048;-70
2023/01/20 11:27:53;;;;;;;18.95;14.25;;;;;;;0.10;100.00;101181.38;5244226;28;20380;-70
2023/01/20 11:30:31;;;;;;;17.67;14.33;;;;;;;0.13;100.00;101184.91;5244377;28;20052;-70
2023/01/20 11:33:24;;;;;;;18.35;14.00;;;;;;;0.26;100.00;101182.78;5245111;28;20025;-70
2023/01/20 11:36:17;;;;;;;18.33;14.32;;;;;;;0.31;100.00;101187.25;5245137;28;20452;-69
2023/01/20 11:38:50;;;;;;;19.45;14.18;;;;;;;0.35;100.00;101188.25;5245525;28;20022;-69
2023/01/20 11:41:25;;;;;;;19.52;14.80;;;;;;;0.47;100.00;101183.56;5244854;28;20510;-70
2023/01/20 11:43:58;;;;;;;16.55;13.50;;;;;;;0.58;100.00;101189.06;5244729;28;20032;-70
2023/01/20 11:46:32;;;;;;;16.75;13.23;;;;;;;0.65;100.00;101193.56;5244452;28;20062;-70
2023/01/20 11:49:14;;;;;;;18.80;14.00;;;;;;;0.73;100.00;101192.13;5244472;28;20557;-69
2023/01/20 11:51:56;;;;;;;16.15;12.82;;;;;;;0.84;100.00;101179.66;5245426;28;20108;-70